Time;durP1;ratioP1;P1;durP2;ratioP2;P2;SDS_P1;SDS_P2;PMS_P1;PMS_P2;Temp;Humidity;BMP_temperature;BMP_pressure;BME280_temperature;BME280_humidity;BME280_pressure;Samples;Min_cycle;Max_cycle;Signal;HPM_P1;HPM_P2
2023/01/22 00:00:07;;;;;;;48.43;35.30;;;;;;;;;;523248;28;1300;-66
2023/01/22 00:00:23;;;;;;;48.88;35.13;;;;;;;;;;521994;28;1094;-66
2023/01/22 00:00:38;;;;;;;49.88;35.53;;;;;;;;;;521569;28;1346;-66
2023/01/22 00:00:54;;;;;;;50.33;35.47;;;;;;;;;;522895;28;1156;-66
2023/01/22 00:01:11;;;;;;;48.85;35.08;;;;;;;;;;520849;28;1896;-66
2023/01/22 00:01:26;;;;;;;47.50;35.05;;;;;;;;;;521019;28;1283;-67
2023/01/22 00:01:42;;;;;;;47.57;35.00;;;;;;;;;;522347;28;1270;-67
2023/01/22 00:01:57;;;;;;;46.47;34.80;;;;;;;;;;522527;28;1360;-66
2023/01/22 00:02:12;;;;;;;48.03;35.23;;;;;;;;;;524982;28;1413;-66
2023/01/22 00:02:28;;;;;;;50.90;35.77;;;;;;;;;;522116;28;1407;-67
2023/01/22 00:02:43;;;;;;;51.05;36.08;;;;;;;;;;519748;28;1528;-66
2023/01/22 00:02:58;;;;;;;49.70;36.17;;;;;;;;;;521285;28;1339;-66
2023/01/22 00:03:13;;;;;;;49.57;36.50;;;;;;;;;;519885;28;1054;-66
2023/01/22 00:03:29;;;;;;;48.58;36.03;;;;;;;;;;521392;28;1694;-67
2023/01/22 00:03:44;;;;;;;47.40;34.93;;;;;;;;;;517932;28;1386;-67
2023/01/22 00:04:00;;;;;;;45.85;34.33;;;;;;;;;;520479;28;1255;-66
2023/01/22 00:04:15;;;;;;;46.77;34.77;;;;;;;;;;520507;28;1658;-66
2023/01/22 00:04:31;;;;;;;49.03;35.40;;;;;;;;;;522607;28;1296;-66
2023/01/22 00:04:46;;;;;;;47.70;35.03;;;;;;;;;;520586;28;1514;-66
2023/01/22 00:05:03;;;;;;;47.85;34.90;;;;;;;;;;520574;28;1983;-66
2023/01/22 00:05:18;;;;;;;50.63;35.70;;;;;;;;;;519777;28;1458;-66
2023/01/22 00:05:33;;;;;;;52.30;36.43;;;;;;;;;;520182;28;1324;-67
2023/01/22 00:05:51;;;;;;;51.20;36.13;;;;;;;;;;519517;28;1303;-67
2023/01/22 00:06:07;;;;;;;48.60;34.90;;;;;;;;;;521635;28;1486;-67
2023/01/22 00:06:23;;;;;;;48.65;35.13;;;;;;;;;;520121;28;1773;-66
2023/01/22 00:06:38;;;;;;;50.27;35.90;;;;;;;;;;520636;28;1182;-66
2023/01/22 00:06:53;;;;;;;49.90;35.57;;;;;;;;;;520141;28;1357;-67
2023/01/22 00:07:08;;;;;;;49.20;34.88;;;;;;;;;;522536;28;1415;-67
2023/01/22 00:07:24;;;;;;;50.57;35.13;;;;;;;;;;520099;28;1694;-67
2023/01/22 00:07:39;;;;;;;51.00;35.80;;;;;;;;;;521610;28;1277;-66
2023/01/22 00:07:54;;;;;;;49.95;35.95;;;;;;;;;;521391;28;1387;-66
2023/01/22 00:08:10;;;;;;;50.87;36.13;;;;;;;;;;524585;28;1293;-66
2023/01/22 00:08:25;;;;;;;50.77;35.87;;;;;;;;;;524252;28;1593;-67
2023/01/22 00:08:41;;;;;;;48.35;34.80;;;;;;;;;;522706;28;1229;-66
2023/01/22 00:08:59;;;;;;;48.40;35.15;;;;;;;;;;522867;28;1383;-67
2023/01/22 00:09:15;;;;;;;49.75;36.08;;;;;;;;;;523476;28;1258;-67
2023/01/22 00:09:30;;;;;;;48.50;35.20;;;;;;;;;;522974;28;1238;-66
2023/01/22 00:09:45;;;;;;;48.50;34.38;;;;;;;;;;519154;28;1417;-66
2023/01/22 00:10:01;;;;;;;49.40;35.20;;;;;;;;;;520602;28;1400;-66
2023/01/22 00:10:16;;;;;;;50.10;35.73;;;;;;;;;;518897;28;1388;-67
2023/01/22 00:10:31;;;;;;;50.78;36.10;;;;;;;;;;518086;28;1149;-67
2023/01/22 00:10:49;;;;;;;51.93;36.13;;;;;;;;;;517630;28;1419;-67
2023/01/22 00:11:04;;;;;;;49.20;35.08;;;;;;;;;;519143;28;1424;-67
2023/01/22 00:11:20;;;;;;;48.23;35.03;;;;;;;;;;518743;28;1396;-66
2023/01/22 00:11:35;;;;;;;49.22;35.05;;;;;;;;;;521825;28;1353;-67
2023/01/22 00:11:51;;;;;;;50.37;35.53;;;;;;;;;;522675;28;1273;-67
2023/01/22 00:12:07;;;;;;;50.55;36.03;;;;;;;;;;519908;28;1407;-67
2023/01/22 00:12:22;;;;;;;51.30;35.85;;;;;;;;;;522690;28;1990;-67
2023/01/22 00:12:37;;;;;;;51.97;35.60;;;;;;;;;;522914;28;1628;-67
2023/01/22 00:12:53;;;;;;;51.47;35.30;;;;;;;;;;523595;28;1310;-67
2023/01/22 00:13:08;;;;;;;50.25;35.83;;;;;;;;;;521976;28;1289;-66
2023/01/22 00:13:25;;;;;;;48.80;35.57;;;;;;;;;;523546;28;1446;-67
2023/01/22 00:13:40;;;;;;;47.28;35.13;;;;;;;;;;520355;28;1622;-67
2023/01/22 00:13:55;;;;;;;48.43;35.23;;;;;;;;;;518855;28;1742;-67
2023/01/22 00:14:11;;;;;;;49.10;35.35;;;;;;;;;;517270;28;1370;-67
2023/01/22 00:14:26;;;;;;;48.67;35.90;;;;;;;;;;515578;28;1236;-66
2023/01/22 00:14:42;;;;;;;50.47;36.23;;;;;;;;;;518267;28;1328;-67
2023/01/22 00:14:57;;;;;;;50.13;35.60;;;;;;;;;;521212;28;1400;-66
2023/01/22 00:15:12;;;;;;;49.47;35.73;;;;;;;;;;520604;28;1291;-67
2023/01/22 00:15:28;;;;;;;50.72;36.47;;;;;;;;;;518119;28;1548;-67
2023/01/22 00:15:43;;;;;;;51.40;36.23;;;;;;;;;;519154;28;1253;-66
2023/01/22 00:15:58;;;;;;;50.87;35.77;;;;;;;;;;521467;28;1697;-66
2023/01/22 00:16:16;;;;;;;50.28;35.85;;;;;;;;;;520173;28;1361;-67
2023/01/22 00:16:31;;;;;;;51.58;36.40;;;;;;;;;;520557;28;1416;-66
2023/01/22 00:16:46;;;;;;;50.28;36.13;;;;;;;;;;519805;28;1156;-66
2023/01/22 00:17:02;;;;;;;49.87;36.23;;;;;;;;;;520011;28;1765;-67
2023/01/22 00:17:17;;;;;;;50.30;36.80;;;;;;;;;;518697;28;1374;-67
2023/01/22 00:17:32;;;;;;;49.88;35.92;;;;;;;;;;517620;28;1435;-66
2023/01/22 00:17:48;;;;;;;50.60;35.83;;;;;;;;;;517182;28;1393;-66
2023/01/22 00:18:03;;;;;;;50.27;36.50;;;;;;;;;;520940;28;1168;-66
2023/01/22 00:18:19;;;;;;;51.17;36.63;;;;;;;;;;519885;28;1325;-67
2023/01/22 00:18:34;;;;;;;50.47;35.87;;;;;;;;;;520893;28;1102;-67
2023/01/22 00:18:49;;;;;;;50.83;36.42;;;;;;;;;;520240;28;1300;-67
2023/01/22 00:19:05;;;;;;;51.50;37.23;;;;;;;;;;519578;28;1200;-66
2023/01/22 00:19:20;;;;;;;52.57;37.27;;;;;;;;;;522231;28;1169;-67
2023/01/22 00:19:35;;;;;;;53.88;37.63;;;;;;;;;;523593;28;1129;-67
2023/01/22 00:19:50;;;;;;;52.63;37.17;;;;;;;;;;524844;28;1266;-66
2023/01/22 00:20:06;;;;;;;53.37;36.93;;;;;;;;;;526951;27;1375;-67
2023/01/22 00:20:21;;;;;;;55.70;37.78;;;;;;;;;;525394;27;1611;-66
2023/01/22 00:20:37;;;;;;;55.47;38.47;;;;;;;;;;524145;28;1251;-66
2023/01/22 00:20:53;;;;;;;53.47;37.75;;;;;;;;;;522251;28;1359;-67
2023/01/22 00:21:10;;;;;;;53.22;37.60;;;;;;;;;;522050;28;1233;-66
2023/01/22 00:21:26;;;;;;;51.72;36.95;;;;;;;;;;521207;28;1101;-67
2023/01/22 00:21:41;;;;;;;50.33;36.03;;;;;;;;;;522385;28;1371;-66
2023/01/22 00:21:57;;;;;;;53.27;36.87;;;;;;;;;;519225;28;1928;-67
2023/01/22 00:22:12;;;;;;;53.90;37.40;;;;;;;;;;518263;28;1422;-66
2023/01/22 00:22:27;;;;;;;49.50;36.33;;;;;;;;;;520585;28;1127;-66
2023/01/22 00:22:43;;;;;;;48.67;35.83;;;;;;;;;;520696;28;1460;-67
2023/01/22 00:22:58;;;;;;;50.40;36.20;;;;;;;;;;522703;28;1444;-67
2023/01/22 00:23:13;;;;;;;52.63;36.93;;;;;;;;;;523366;28;1681;-66
2023/01/22 00:23:29;;;;;;;51.42;37.13;;;;;;;;;;521948;28;1668;-67
2023/01/22 00:23:44;;;;;;;52.10;37.33;;;;;;;;;;519609;28;1290;-66
2023/01/22 00:24:00;;;;;;;54.10;37.67;;;;;;;;;;519216;28;1208;-67
2023/01/22 00:24:16;;;;;;;54.97;37.67;;;;;;;;;;522673;28;1289;-67
2023/01/22 00:24:31;;;;;;;53.93;38.20;;;;;;;;;;522582;28;1415;-67
2023/01/22 00:24:47;;;;;;;53.50;38.90;;;;;;;;;;519899;28;1392;-67
2023/01/22 00:25:04;;;;;;;55.97;39.67;;;;;;;;;;519419;28;1981;-66
2023/01/22 00:25:19;;;;;;;55.58;38.60;;;;;;;;;;520147;28;1101;-67
2023/01/22 00:25:34;;;;;;;53.43;37.60;;;;;;;;;;523312;28;1382;-67
2023/01/22 00:26:00;;;;;;;52.97;37.53;;;;;;;;;;524247;28;1347;-67
2023/01/22 00:26:16;;;;;;;53.08;37.35;;;;;;;;;;522297;28;1427;-67
2023/01/22 00:26:31;;;;;;;53.78;37.38;;;;;;;;;;520863;28;1559;-66
2023/01/22 00:26:46;;;;;;;51.73;36.93;;;;;;;;;;524373;28;2085;-66
2023/01/22 00:27:02;;;;;;;49.30;36.63;;;;;;;;;;524426;28;1476;-68
2023/01/22 00:27:17;;;;;;;50.15;36.65;;;;;;;;;;523704;28;1469;-67
2023/01/22 00:27:32;;;;;;;50.80;36.70;;;;;;;;;;524354;28;1414;-66
2023/01/22 00:27:48;;;;;;;49.80;36.57;;;;;;;;;;522101;28;1488;-66
2023/01/22 00:28:03;;;;;;;49.83;36.27;;;;;;;;;;520354;28;1263;-66
2023/01/22 00:28:18;;;;;;;52.45;37.42;;;;;;;;;;518407;28;1742;-66
2023/01/22 00:28:33;;;;;;;54.30;38.37;;;;;;;;;;519998;28;1196;-65
2023/01/22 00:28:49;;;;;;;53.50;37.50;;;;;;;;;;519579;28;1340;-65
2023/01/22 00:29:04;;;;;;;51.13;36.47;;;;;;;;;;520310;28;1129;-65
2023/01/22 00:29:19;;;;;;;49.43;35.90;;;;;;;;;;520736;28;1421;-66
2023/01/22 00:29:34;;;;;;;50.23;36.33;;;;;;;;;;520374;28;1430;-66
2023/01/22 00:29:50;;;;;;;53.97;37.60;;;;;;;;;;519187;28;1436;-66
2023/01/22 00:30:06;;;;;;;54.45;37.67;;;;;;;;;;519396;28;1399;-67
2023/01/22 00:30:21;;;;;;;50.95;36.53;;;;;;;;;;523044;28;1414;-65
2023/01/22 00:30:37;;;;;;;52.10;36.60;;;;;;;;;;521733;28;1159;-65
2023/01/22 00:31:00;;;;;;;52.97;36.95;;;;;;;;;;520762;28;1701;-66
2023/01/22 00:31:16;;;;;;;52.88;37.72;;;;;;;;;;520421;28;2373;-66
2023/01/22 00:31:31;;;;;;;52.47;36.92;;;;;;;;;;522338;28;3730;-66
2023/01/22 00:31:46;;;;;;;51.20;36.43;;;;;;;;;;520961;28;1042;-66
2023/01/22 00:32:02;;;;;;;50.93;36.37;;;;;;;;;;520586;28;1340;-66
2023/01/22 00:32:17;;;;;;;52.97;36.88;;;;;;;;;;523102;28;1296;-65
2023/01/22 00:32:32;;;;;;;52.30;37.57;;;;;;;;;;524298;28;1376;-66
2023/01/22 00:32:47;;;;;;;51.60;37.28;;;;;;;;;;524833;27;1326;-66
2023/01/22 00:33:03;;;;;;;50.43;36.33;;;;;;;;;;526946;27;1766;-66
2023/01/22 00:33:19;;;;;;;49.90;35.72;;;;;;;;;;524944;28;1424;-66
2023/01/22 00:33:34;;;;;;;52.43;36.53;;;;;;;;;;523987;28;1230;-66
2023/01/22 00:33:49;;;;;;;53.20;36.72;;;;;;;;;;523268;28;1399;-66
2023/01/22 00:34:05;;;;;;;52.07;36.47;;;;;;;;;;522387;28;1454;-67
2023/01/22 00:34:20;;;;;;;50.90;36.43;;;;;;;;;;521356;28;1330;-65
2023/01/22 00:34:35;;;;;;;50.73;35.80;;;;;;;;;;522968;28;1348;-66
2023/01/22 00:34:51;;;;;;;50.33;35.58;;;;;;;;;;522827;28;1367;-66
2023/01/22 00:35:07;;;;;;;48.67;35.08;;;;;;;;;;522702;28;1261;-66
2023/01/22 00:35:22;;;;;;;47.20;34.70;;;;;;;;;;522558;28;1164;-66
2023/01/22 00:35:38;;;;;;;48.60;34.85;;;;;;;;;;524629;27;1200;-66
2023/01/22 00:35:53;;;;;;;48.50;34.50;;;;;;;;;;524749;28;1241;-66
2023/01/22 00:36:12;;;;;;;46.57;34.07;;;;;;;;;;524247;28;1701;-65
2023/01/22 00:36:28;;;;;;;46.88;34.80;;;;;;;;;;525651;27;1412;-66
2023/01/22 00:36:43;;;;;;;48.70;35.88;;;;;;;;;;524386;28;1410;-67
2023/01/22 00:36:58;;;;;;;49.77;35.77;;;;;;;;;;524044;28;1390;-66
2023/01/22 00:37:14;;;;;;;49.83;35.33;;;;;;;;;;524378;28;1406;-67
2023/01/22 00:37:29;;;;;;;52.43;36.10;;;;;;;;;;524879;28;1331;-66
2023/01/22 00:37:47;;;;;;;53.45;37.17;;;;;;;;;;522870;28;1418;-66
2023/01/22 00:38:02;;;;;;;51.42;37.08;;;;;;;;;;524812;28;1248;-66
2023/01/22 00:38:18;;;;;;;50.97;36.40;;;;;;;;;;525175;27;1421;-66
2023/01/22 00:38:34;;;;;;;51.28;35.45;;;;;;;;;;524786;28;1416;-65
2023/01/22 00:38:49;;;;;;;49.72;35.25;;;;;;;;;;524396;28;1452;-66
2023/01/22 00:39:04;;;;;;;48.20;35.40;;;;;;;;;;523123;28;1312;-65
2023/01/22 00:39:20;;;;;;;47.57;35.17;;;;;;;;;;522168;28;1323;-66
2023/01/22 00:39:35;;;;;;;47.13;34.38;;;;;;;;;;522932;28;2045;-65
2023/01/22 00:39:50;;;;;;;46.93;34.03;;;;;;;;;;523100;28;1689;-65
2023/01/22 00:40:06;;;;;;;45.77;33.70;;;;;;;;;;522340;28;1110;-66
2023/01/22 00:40:21;;;;;;;46.38;33.80;;;;;;;;;;523254;28;1407;-66
2023/01/22 00:40:37;;;;;;;47.90;34.43;;;;;;;;;;523020;28;1461;-66
2023/01/22 00:40:52;;;;;;;47.80;34.40;;;;;;;;;;522398;28;1077;-66
2023/01/22 00:41:08;;;;;;;47.10;34.30;;;;;;;;;;521237;28;1771;-66
2023/01/22 00:41:23;;;;;;;46.47;34.15;;;;;;;;;;522447;28;1393;-66
2023/01/22 00:41:40;;;;;;;46.90;34.42;;;;;;;;;;522396;28;1403;-66
2023/01/22 00:41:56;;;;;;;47.40;34.38;;;;;;;;;;521570;28;1304;-66
2023/01/22 00:42:11;;;;;;;46.67;34.30;;;;;;;;;;520113;28;1424;-65
2023/01/22 00:42:26;;;;;;;47.23;34.70;;;;;;;;;;520737;28;1121;-66
2023/01/22 00:42:42;;;;;;;47.85;35.05;;;;;;;;;;522225;28;1755;-65
2023/01/22 00:42:57;;;;;;;47.77;35.00;;;;;;;;;;522050;28;1363;-66
2023/01/22 00:43:12;;;;;;;48.53;35.83;;;;;;;;;;525994;27;1078;-66
2023/01/22 00:43:28;;;;;;;48.60;36.25;;;;;;;;;;523210;28;1318;-65
2023/01/22 00:43:44;;;;;;;48.40;35.90;;;;;;;;;;524705;28;1296;-66
2023/01/22 00:44:00;;;;;;;48.63;35.55;;;;;;;;;;522652;28;1481;-66
2023/01/22 00:44:15;;;;;;;47.53;34.07;;;;;;;;;;522518;28;1626;-67
2023/01/22 00:44:30;;;;;;;47.72;33.78;;;;;;;;;;523236;28;1300;-66
2023/01/22 00:44:46;;;;;;;48.73;34.53;;;;;;;;;;520283;28;1311;-66
2023/01/22 00:45:01;;;;;;;48.33;34.37;;;;;;;;;;523323;28;1907;-66
2023/01/22 00:45:16;;;;;;;47.53;34.53;;;;;;;;;;522917;28;1224;-66
2023/01/22 00:45:32;;;;;;;46.67;34.43;;;;;;;;;;524233;28;1429;-66
2023/01/22 00:45:48;;;;;;;48.28;34.72;;;;;;;;;;522218;28;1721;-66
2023/01/22 00:46:04;;;;;;;48.17;34.50;;;;;;;;;;523625;28;1171;-65
2023/01/22 00:46:20;;;;;;;46.60;34.28;;;;;;;;;;525322;28;1379;-66
2023/01/22 00:46:35;;;;;;;46.42;34.30;;;;;;;;;;525636;27;1300;-67
2023/01/22 00:46:51;;;;;;;45.47;33.50;;;;;;;;;;525255;27;1307;-66
2023/01/22 00:47:06;;;;;;;45.53;33.53;;;;;;;;;;524917;28;1336;-65
2023/01/22 00:47:22;;;;;;;46.20;34.27;;;;;;;;;;525036;28;1693;-66
2023/01/22 00:47:37;;;;;;;44.63;33.50;;;;;;;;;;522599;28;1330;-66
2023/01/22 00:47:52;;;;;;;43.57;32.67;;;;;;;;;;523140;28;1395;-66
2023/01/22 00:48:07;;;;;;;45.27;33.50;;;;;;;;;;522280;28;1455;-65
2023/01/22 00:48:23;;;;;;;45.63;33.53;;;;;;;;;;524355;28;1474;-66
2023/01/22 00:48:38;;;;;;;44.60;32.80;;;;;;;;;;524992;28;1382;-66
2023/01/22 00:48:54;;;;;;;44.83;32.85;;;;;;;;;;522389;28;1264;-66
2023/01/22 00:49:10;;;;;;;44.73;33.73;;;;;;;;;;520914;28;1199;-66
2023/01/22 00:49:25;;;;;;;45.63;34.08;;;;;;;;;;521728;28;1381;-66
2023/01/22 00:49:40;;;;;;;46.07;33.73;;;;;;;;;;523000;28;1360;-66
2023/01/22 00:49:56;;;;;;;46.17;33.85;;;;;;;;;;521196;28;1336;-66
2023/01/22 00:50:11;;;;;;;47.00;33.83;;;;;;;;;;520667;28;1155;-66
2023/01/22 00:50:27;;;;;;;45.60;33.67;;;;;;;;;;523061;28;1434;-66
2023/01/22 00:50:42;;;;;;;44.38;33.20;;;;;;;;;;521726;28;1735;-65
2023/01/22 00:50:57;;;;;;;43.83;32.70;;;;;;;;;;523777;28;1331;-66
2023/01/22 00:51:13;;;;;;;43.60;32.67;;;;;;;;;;522788;28;1373;-66
2023/01/22 00:51:29;;;;;;;42.83;32.30;;;;;;;;;;522575;28;1569;-66
2023/01/22 00:51:44;;;;;;;43.73;32.90;;;;;;;;;;521822;28;1112;-66
2023/01/22 00:52:00;;;;;;;43.03;32.97;;;;;;;;;;521797;28;1238;-66
2023/01/22 00:52:15;;;;;;;41.83;32.50;;;;;;;;;;521089;28;1658;-66
2023/01/22 00:52:30;;;;;;;42.60;32.37;;;;;;;;;;519411;28;1298;-66
2023/01/22 00:52:46;;;;;;;42.83;32.05;;;;;;;;;;518153;28;1201;-66
2023/01/22 00:53:02;;;;;;;42.10;31.50;;;;;;;;;;517874;28;1071;-66
2023/01/22 00:53:18;;;;;;;41.53;31.65;;;;;;;;;;521603;28;1284;-66
2023/01/22 00:53:34;;;;;;;42.07;32.27;;;;;;;;;;522423;28;1423;-66
2023/01/22 00:53:50;;;;;;;42.63;31.95;;;;;;;;;;521264;28;1634;-66
2023/01/22 00:54:05;;;;;;;42.90;31.77;;;;;;;;;;521035;28;1131;-65
2023/01/22 00:54:21;;;;;;;42.47;31.73;;;;;;;;;;525324;27;1477;-66
2023/01/22 00:54:36;;;;;;;41.40;31.43;;;;;;;;;;526541;27;1527;-66
2023/01/22 00:54:51;;;;;;;40.38;30.80;;;;;;;;;;526407;27;1802;-66
2023/01/22 00:55:07;;;;;;;40.97;30.57;;;;;;;;;;526072;27;1338;-67
2023/01/22 00:55:22;;;;;;;42.17;31.30;;;;;;;;;;524326;27;1361;-66
2023/01/22 00:55:38;;;;;;;43.80;32.40;;;;;;;;;;526516;27;1445;-66
2023/01/22 00:55:56;;;;;;;44.50;32.90;;;;;;;;;;524972;28;1351;-66
2023/01/22 00:56:12;;;;;;;41.92;32.08;;;;;;;;;;524073;28;1192;-66
2023/01/22 00:56:28;;;;;;;40.85;31.20;;;;;;;;;;521847;28;1422;-66
2023/01/22 00:56:43;;;;;;;40.72;31.15;;;;;;;;;;523147;28;1097;-66
2023/01/22 00:56:58;;;;;;;40.57;31.30;;;;;;;;;;521413;28;1764;-66
2023/01/22 00:57:14;;;;;;;41.90;31.53;;;;;;;;;;523454;28;1148;-66
2023/01/22 00:57:29;;;;;;;41.78;31.70;;;;;;;;;;521467;28;1491;-66
2023/01/22 00:57:44;;;;;;;40.17;31.27;;;;;;;;;;520170;28;1307;-66
2023/01/22 00:57:59;;;;;;;39.10;30.73;;;;;;;;;;522972;28;1458;-67
2023/01/22 00:58:15;;;;;;;38.97;30.13;;;;;;;;;;524622;27;1405;-66
2023/01/22 00:58:30;;;;;;;39.73;30.60;;;;;;;;;;523854;28;1376;-66
2023/01/22 00:58:45;;;;;;;40.47;31.10;;;;;;;;;;523346;28;1651;-65
2023/01/22 00:59:01;;;;;;;42.25;31.38;;;;;;;;;;522056;28;1683;-66
2023/01/22 00:59:16;;;;;;;41.53;31.50;;;;;;;;;;520835;28;1378;-66
2023/01/22 00:59:32;;;;;;;40.90;31.37;;;;;;;;;;519999;28;1256;-66
2023/01/22 00:59:47;;;;;;;42.45;31.08;;;;;;;;;;522298;28;1203;-66
2023/01/22 01:00:03;;;;;;;42.30;31.25;;;;;;;;;;519843;28;1428;-65
2023/01/22 01:00:19;;;;;;;41.03;31.30;;;;;;;;;;519912;28;1745;-66
2023/01/22 01:00:34;;;;;;;42.13;31.93;;;;;;;;;;521883;28;1346;-66
2023/01/22 01:00:49;;;;;;;42.90;32.10;;;;;;;;;;522088;28;1454;-66
2023/01/22 01:01:06;;;;;;;42.72;32.15;;;;;;;;;;521851;28;1187;-66
2023/01/22 01:01:21;;;;;;;42.65;31.95;;;;;;;;;;521718;28;1387;-66
2023/01/22 01:01:38;;;;;;;41.78;31.48;;;;;;;;;;520623;28;1265;-66
2023/01/22 01:01:53;;;;;;;40.75;31.17;;;;;;;;;;518650;28;1774;-66
2023/01/22 01:02:08;;;;;;;40.23;31.50;;;;;;;;;;520278;28;1150;-66
2023/01/22 01:02:23;;;;;;;39.13;31.20;;;;;;;;;;521138;28;1332;-66
2023/01/22 01:03:25;;;;;;;39.53;30.57;;;;;;;;;;520621;28;1163;-66
2023/01/22 01:03:31;;;;;;;40.38;31.05;;;;;;;;;;521674;28;1565;-66
2023/01/22 01:03:46;;;;;;;41.10;30.67;;;;;;;;;;521669;28;1435;-66
2023/01/22 01:04:01;;;;;;;38.85;30.02;;;;;;;;;;522416;28;1268;-66
2023/01/22 01:04:17;;;;;;;40.47;30.67;;;;;;;;;;521391;28;1169;-66
2023/01/22 01:04:32;;;;;;;41.30;30.90;;;;;;;;;;526083;27;1256;-66
2023/01/22 01:04:48;;;;;;;39.40;29.80;;;;;;;;;;526076;27;1497;-66
2023/01/22 01:05:03;;;;;;;39.65;29.95;;;;;;;;;;526460;27;1975;-66
2023/01/22 01:05:19;;;;;;;38.97;30.43;;;;;;;;;;525888;27;1270;-66
2023/01/22 01:05:34;;;;;;;38.17;30.03;;;;;;;;;;525177;27;1309;-66
2023/01/22 01:05:49;;;;;;;38.10;29.92;;;;;;;;;;524370;28;1187;-66
2023/01/22 01:06:13;;;;;;;38.97;30.17;;;;;;;;;;524469;28;1358;-66
2023/01/22 01:06:28;;;;;;;38.90;30.00;;;;;;;;;;524219;28;1309;-66
2023/01/22 01:06:44;;;;;;;38.47;30.10;;;;;;;;;;523272;28;1414;-66
2023/01/22 01:06:59;;;;;;;39.75;30.67;;;;;;;;;;521470;28;1193;-66
2023/01/22 01:07:14;;;;;;;40.80;30.83;;;;;;;;;;520617;28;1239;-65
2023/01/22 01:07:29;;;;;;;39.73;30.27;;;;;;;;;;524615;28;1366;-66
2023/01/22 01:07:45;;;;;;;39.47;30.35;;;;;;;;;;525057;28;1370;-66
2023/01/22 01:08:00;;;;;;;39.90;30.57;;;;;;;;;;521991;28;1175;-66
2023/01/22 01:08:15;;;;;;;40.03;30.80;;;;;;;;;;521019;28;1446;-66
2023/01/22 01:08:36;;;;;;;40.13;30.57;;;;;;;;;;519397;28;1157;-65
2023/01/22 01:08:52;;;;;;;38.40;29.55;;;;;;;;;;520890;28;1387;-66
2023/01/22 01:09:07;;;;;;;37.13;29.30;;;;;;;;;;521431;28;1261;-66
2023/01/22 01:09:22;;;;;;;36.00;28.50;;;;;;;;;;520899;28;1182;-66
2023/01/22 01:09:38;;;;;;;34.95;27.85;;;;;;;;;;523068;28;1343;-66
2023/01/22 01:09:53;;;;;;;37.07;29.00;;;;;;;;;;522235;28;3523;-66
2023/01/22 01:10:09;;;;;;;39.77;30.00;;;;;;;;;;522938;28;1458;-66
2023/01/22 01:10:24;;;;;;;37.75;29.30;;;;;;;;;;524011;28;1787;-65
2023/01/22 01:10:39;;;;;;;35.97;28.92;;;;;;;;;;524503;28;1122;-66
2023/01/22 01:10:57;;;;;;;35.93;28.87;;;;;;;;;;524834;28;1396;-66
2023/01/22 01:11:16;;;;;;;36.42;28.58;;;;;;;;;;522758;28;1301;-66
2023/01/22 01:11:31;;;;;;;36.90;28.92;;;;;;;;;;522725;28;1908;-66
2023/01/22 01:11:46;;;;;;;35.65;28.25;;;;;;;;;;522356;28;1211;-66
2023/01/22 01:12:02;;;;;;;34.47;27.33;;;;;;;;;;524572;28;1287;-66
2023/01/22 01:12:17;;;;;;;35.40;28.13;;;;;;;;;;522673;28;1371;-66
2023/01/22 01:12:32;;;;;;;36.40;28.90;;;;;;;;;;521997;28;1201;-65
2023/01/22 01:12:48;;;;;;;34.60;28.03;;;;;;;;;;522962;28;1272;-66
2023/01/22 01:13:03;;;;;;;34.17;27.70;;;;;;;;;;524312;28;1611;-66
2023/01/22 01:13:18;;;;;;;35.63;27.85;;;;;;;;;;522144;28;1477;-65
2023/01/22 01:13:37;;;;;;;35.00;27.47;;;;;;;;;;521600;28;1204;-66
2023/01/22 01:13:52;;;;;;;34.67;27.50;;;;;;;;;;524733;28;1220;-66
2023/01/22 01:14:08;;;;;;;34.40;27.52;;;;;;;;;;524390;28;1131;-66
2023/01/22 01:14:23;;;;;;;33.13;27.03;;;;;;;;;;525034;28;1526;-66
2023/01/22 01:14:38;;;;;;;33.60;27.13;;;;;;;;;;524458;28;1489;-65
2023/01/22 01:14:55;;;;;;;34.30;27.27;;;;;;;;;;520594;28;1275;-65
2023/01/22 01:15:10;;;;;;;34.30;27.13;;;;;;;;;;523838;28;1520;-66
2023/01/22 01:15:25;;;;;;;33.60;26.97;;;;;;;;;;524119;28;1382;-66
2023/01/22 01:15:42;;;;;;;32.97;26.90;;;;;;;;;;524215;28;1274;-66
2023/01/22 01:16:03;;;;;;;34.05;26.95;;;;;;;;;;520698;28;1579;-66
2023/01/22 01:16:29;;;;;;;35.53;27.75;;;;;;;;;;522789;28;1787;-66
2023/01/22 01:16:44;;;;;;;36.05;28.20;;;;;;;;;;523615;28;1246;-66
2023/01/22 01:17:00;;;;;;;37.20;28.87;;;;;;;;;;522559;28;1222;-66
2023/01/22 01:17:15;;;;;;;36.45;28.42;;;;;;;;;;523529;28;1318;-66
2023/01/22 01:17:30;;;;;;;34.83;28.10;;;;;;;;;;524035;28;1300;-65
2023/01/22 01:17:45;;;;;;;34.33;27.53;;;;;;;;;;523918;28;1852;-66
2023/01/22 01:18:01;;;;;;;33.80;27.05;;;;;;;;;;522752;28;1560;-65
2023/01/22 01:18:16;;;;;;;33.37;26.87;;;;;;;;;;518991;28;1235;-65
2023/01/22 01:18:33;;;;;;;33.73;27.13;;;;;;;;;;522380;28;1310;-66
2023/01/22 01:18:49;;;;;;;33.38;26.90;;;;;;;;;;523632;28;1543;-66
2023/01/22 01:19:08;;;;;;;32.35;26.10;;;;;;;;;;524158;28;1200;-66
2023/01/22 01:19:24;;;;;;;32.38;26.25;;;;;;;;;;522312;28;1502;-66
2023/01/22 01:19:39;;;;;;;33.03;26.43;;;;;;;;;;520106;28;1229;-66
2023/01/22 01:19:54;;;;;;;32.47;26.57;;;;;;;;;;521121;28;1114;-66
2023/01/22 01:20:10;;;;;;;33.22;27.65;;;;;;;;;;519995;28;1183;-65
2023/01/22 01:20:25;;;;;;;33.50;27.17;;;;;;;;;;522368;28;1478;-66
2023/01/22 01:20:41;;;;;;;32.13;26.08;;;;;;;;;;521046;28;1415;-66
2023/01/22 01:20:57;;;;;;;31.70;25.90;;;;;;;;;;520874;28;1689;-66
2023/01/22 01:21:13;;;;;;;32.13;26.27;;;;;;;;;;519591;28;1486;-66
2023/01/22 01:21:29;;;;;;;32.53;26.30;;;;;;;;;;523530;28;1295;-65
2023/01/22 01:21:45;;;;;;;31.88;25.27;;;;;;;;;;525356;28;1422;-65
2023/01/22 01:22:00;;;;;;;31.55;25.38;;;;;;;;;;524294;28;990;-65
2023/01/22 01:22:16;;;;;;;31.00;25.40;;;;;;;;;;523628;28;1112;-65
2023/01/22 01:22:31;;;;;;;30.80;25.30;;;;;;;;;;524178;28;1761;-65
2023/01/22 01:22:46;;;;;;;30.73;25.33;;;;;;;;;;525436;28;1696;-65
2023/01/22 01:23:02;;;;;;;31.63;25.83;;;;;;;;;;522374;28;1432;-66
2023/01/22 01:23:17;;;;;;;33.33;26.73;;;;;;;;;;525185;28;1276;-66
2023/01/22 01:23:33;;;;;;;33.40;27.00;;;;;;;;;;522032;28;1162;-65
2023/01/22 01:23:48;;;;;;;32.85;26.60;;;;;;;;;;519390;28;1289;-65
2023/01/22 01:24:04;;;;;;;31.30;25.63;;;;;;;;;;520053;28;1387;-66
2023/01/22 01:24:19;;;;;;;29.92;25.30;;;;;;;;;;519992;28;2024;-66
2023/01/22 01:24:35;;;;;;;31.50;26.00;;;;;;;;;;520974;28;1447;-66
2023/01/22 01:24:50;;;;;;;31.75;25.83;;;;;;;;;;520770;28;1357;-66
2023/01/22 01:25:06;;;;;;;31.57;25.37;;;;;;;;;;521634;28;2009;-65
2023/01/22 01:25:21;;;;;;;31.97;25.73;;;;;;;;;;523429;28;1344;-66
2023/01/22 01:25:39;;;;;;;31.90;25.88;;;;;;;;;;522747;28;1450;-66
2023/01/22 01:25:55;;;;;;;31.25;25.98;;;;;;;;;;522375;28;1670;-65
2023/01/22 01:26:13;;;;;;;30.95;26.35;;;;;;;;;;520215;28;1364;-66
2023/01/22 01:26:28;;;;;;;31.88;25.92;;;;;;;;;;520515;28;1518;-65
2023/01/22 01:26:44;;;;;;;31.83;25.53;;;;;;;;;;519593;28;1307;-66
2023/01/22 01:26:59;;;;;;;31.75;26.00;;;;;;;;;;522213;28;1180;-66
2023/01/22 01:27:14;;;;;;;31.20;26.17;;;;;;;;;;521383;28;1368;-66
2023/01/22 01:27:30;;;;;;;31.17;25.80;;;;;;;;;;519488;28;1492;-66
2023/01/22 01:27:45;;;;;;;30.95;25.40;;;;;;;;;;516942;28;1359;-66
2023/01/22 01:28:01;;;;;;;30.67;25.50;;;;;;;;;;519919;28;1423;-66
2023/01/22 01:28:17;;;;;;;30.85;25.85;;;;;;;;;;519779;28;1275;-66
2023/01/22 01:28:35;;;;;;;30.55;25.27;;;;;;;;;;520535;28;1013;-65
2023/01/22 01:28:53;;;;;;;32.22;26.05;;;;;;;;;;520115;28;1124;-65
2023/01/22 01:29:10;;;;;;;34.22;27.02;;;;;;;;;;518081;28;1330;-66
2023/01/22 01:29:25;;;;;;;33.33;26.48;;;;;;;;;;520140;28;1706;-66
2023/01/22 01:29:40;;;;;;;31.30;25.80;;;;;;;;;;520815;28;1207;-66
2023/01/22 01:29:56;;;;;;;32.00;25.60;;;;;;;;;;518795;28;1140;-65
2023/01/22 01:30:12;;;;;;;32.63;26.17;;;;;;;;;;523243;28;990;-66
2023/01/22 01:30:27;;;;;;;32.40;26.57;;;;;;;;;;521682;28;1424;-66
2023/01/22 01:30:43;;;;;;;32.63;26.53;;;;;;;;;;519351;28;1311;-66
2023/01/22 01:31:02;;;;;;;32.30;25.95;;;;;;;;;;518810;28;1120;-65
2023/01/22 01:31:19;;;;;;;32.45;26.00;;;;;;;;;;520676;28;1113;-66
2023/01/22 01:31:36;;;;;;;32.15;25.90;;;;;;;;;;520964;28;1563;-66
2023/01/22 01:31:53;;;;;;;33.65;26.52;;;;;;;;;;521704;28;1258;-65
2023/01/22 01:32:08;;;;;;;33.42;26.38;;;;;;;;;;524421;28;1224;-64
2023/01/22 01:32:24;;;;;;;32.00;25.83;;;;;;;;;;524906;28;1438;-64
2023/01/22 01:32:39;;;;;;;30.80;25.85;;;;;;;;;;522328;28;1337;-64
2023/01/22 01:32:55;;;;;;;30.47;25.63;;;;;;;;;;523129;28;1133;-64
2023/01/22 01:33:10;;;;;;;30.93;25.53;;;;;;;;;;522916;28;1633;-65
2023/01/22 01:33:25;;;;;;;29.88;24.92;;;;;;;;;;525231;28;1094;-64
2023/01/22 01:33:41;;;;;;;28.70;24.27;;;;;;;;;;524207;28;1601;-64
2023/01/22 01:33:57;;;;;;;28.65;24.48;;;;;;;;;;524197;28;1044;-64
2023/01/22 01:34:12;;;;;;;29.27;24.83;;;;;;;;;;523467;28;1206;-64
2023/01/22 01:34:28;;;;;;;30.37;24.97;;;;;;;;;;524397;28;1129;-64
2023/01/22 01:34:44;;;;;;;29.37;24.40;;;;;;;;;;525356;28;1078;-64
2023/01/22 01:34:59;;;;;;;28.83;24.13;;;;;;;;;;524346;28;1157;-64